Time;durP1;ratioP1;P1;durP2;ratioP2;P2;SDS_P1;SDS_P2;PMS_P1;PMS_P2;Temp;Humidity;BMP_temperature;BMP_pressure;BME280_temperature;BME280_humidity;BME280_pressure;Samples;Min_cycle;Max_cycle;Signal;HPM_P1;HPM_P2
2022/08/30 04:00:26;;;;;;;17.10;8.50;;;8.50;96.30;;;;;;5922214;23;21868;-76
2022/08/30 04:02:52;;;;;;;8.87;6.93;;;8.40;96.30;;;;;;5012414;28;20408;-75
2022/08/30 04:05:17;;;;;;;8.30;5.67;;;8.40;96.30;;;;;;5012710;28;20544;-75
2022/08/30 04:07:43;;;;;;;14.40;7.90;;;8.30;96.30;;;;;;5012998;28;20259;-76
2022/08/30 04:10:09;;;;;;;4.93;3.70;;;8.30;96.30;;;;;;4994583;28;20932;-76
2022/08/30 04:12:35;;;;;;;5.00;2.50;;;8.40;96.30;;;;;;4995213;28;20598;-76
2022/08/30 04:15:01;;;;;;;6.93;4.20;;;8.50;96.30;;;;;;5012763;28;20195;-76
2022/08/30 04:17:27;;;;;;;10.00;4.80;;;8.50;96.30;;;;;;5012741;28;20459;-77
2022/08/30 04:19:52;;;;;;;20.70;9.20;;;8.40;96.30;;;;;;4994507;28;20498;-79
2022/08/30 04:22:18;;;;;;;16.23;9.07;;;8.40;96.30;;;;;;5012419;28;20661;-75
2022/08/30 04:24:43;;;;;;;15.73;8.17;;;8.50;96.30;;;;;;4994976;28;20999;-76
2022/08/30 04:27:09;;;;;;;7.63;4.93;;;8.50;96.30;;;;;;5012650;28;20602;-78
2022/08/30 04:29:35;;;;;;;8.07;3.90;;;8.60;96.30;;;;;;4994399;28;20576;-79
2022/08/30 04:32:00;;;;;;;8.00;6.33;;;8.60;96.30;;;;;;4994855;28;20621;-78
2022/08/30 04:34:26;;;;;;;13.90;8.93;;;8.60;96.30;;;;;;5012460;28;20255;-77
2022/08/30 04:36:51;;;;;;;5.70;4.37;;;8.60;96.30;;;;;;4992326;28;20638;-76
2022/08/30 04:39:18;;;;;;;5.90;3.40;;;8.60;96.30;;;;;;4993005;28;20287;-76
2022/08/30 04:41:43;;;;;;;7.50;3.50;;;8.60;96.30;;;;;;4994417;28;20207;-76
2022/08/30 04:44:09;;;;;;;8.23;4.10;;;8.70;96.30;;;;;;5012236;28;20412;-76
2022/08/30 04:46:35;;;;;;;4.23;3.30;;;8.80;96.30;;;;;;5012185;28;20637;-76
2022/08/30 04:49:02;;;;;;;4.47;2.80;;;8.80;96.30;;;;;;4993618;28;20208;-76
2022/08/30 04:51:27;;;;;;;5.20;3.40;;;9.00;96.30;;;;;;4994403;28;20439;-77
2022/08/30 04:53:53;;;;;;;11.00;3.37;;;9.10;96.30;;;;;;4994327;28;20416;-76
2022/08/30 04:56:21;;;;;;;8.77;3.97;;;9.20;96.30;;;;;;4994140;28;20541;-76
2022/08/30 04:58:48;;;;;;;11.17;3.90;;;9.40;96.30;;;;;;5011245;28;20756;-76
2022/08/30 05:01:17;;;;;;;7.80;3.40;;;9.50;96.30;;;;;;5012226;28;20443;-77
2022/08/30 05:03:42;;;;;;;3.80;3.20;;;9.60;96.30;;;;;;5007221;28;20443;-74
2022/08/30 05:06:11;;;;;;;6.30;3.50;;;9.70;96.30;;;;;;5011964;28;20432;-76
2022/08/30 05:08:37;;;;;;;3.77;2.83;;;9.90;96.30;;;;;;5010844;28;20252;-76
2022/08/30 05:11:04;;;;;;;4.17;3.20;;;10.10;96.30;;;;;;5012062;28;20519;-76
2022/08/30 05:13:30;;;;;;;5.30;3.03;;;10.30;96.30;;;;;;5015645;28;20604;-77
2022/08/30 05:15:56;;;;;;;3.90;3.30;;;10.50;96.30;;;;;;5016225;28;20753;-77
2022/08/30 05:18:21;;;;;;;3.97;3.33;;;10.70;96.30;;;;;;5014869;28;20454;-77
2022/08/30 05:20:47;;;;;;;9.77;2.83;;;11.00;96.30;;;;;;5015676;28;20656;-76
2022/08/30 05:23:12;;;;;;;7.47;3.40;;;11.10;96.30;;;;;;5015932;28;20181;-77
2022/08/30 05:25:40;;;;;;;4.80;3.20;;;11.20;96.30;;;;;;5017837;28;20843;-77
2022/08/30 05:28:07;;;;;;;5.57;2.70;;;11.20;96.30;;;;;;5016139;28;20173;-77
2022/08/30 05:30:35;;;;;;;6.10;3.30;;;11.30;96.30;;;;;;5016288;28;20927;-75
2022/08/30 05:33:01;;;;;;;3.00;2.70;;;11.30;96.30;;;;;;5015705;28;20829;-75
2022/08/30 05:35:26;;;;;;;4.37;3.37;;;11.20;96.30;;;;;;4998135;28;20427;-74
2022/08/30 05:37:52;;;;;;;4.60;3.27;;;11.30;96.30;;;;;;5015051;28;20955;-75
2022/08/30 05:40:18;;;;;;;3.70;2.83;;;11.40;96.30;;;;;;5014815;28;20200;-75
2022/08/30 05:42:45;;;;;;;3.43;2.80;;;11.50;96.30;;;;;;4998127;28;20903;-75
2022/08/30 05:45:12;;;;;;;5.77;3.53;;;11.60;96.30;;;;;;5015493;28;20204;-75
2022/08/30 05:47:38;;;;;;;5.97;3.30;;;11.70;96.30;;;;;;5015892;28;20420;-74
2022/08/30 05:50:08;;;;;;;3.40;2.60;;;11.50;96.30;;;;;;5015358;28;20748;-77
2022/08/30 06:27:42;;;;;;;4.23;2.57;;;13.80;96.30;;;;;;5185277;23;20499;-74
2022/08/30 06:30:09;;;;;;;6.70;2.57;;;14.30;96.30;;;;;;5014267;28;20756;-75
2022/08/30 06:32:38;;;;;;;5.80;2.30;;;14.70;96.30;;;;;;4994909;28;20182;-74
2022/08/30 06:35:05;;;;;;;3.90;2.60;;;15.40;96.30;;;;;;4994579;28;20421;-74
2022/08/30 06:37:31;;;;;;;9.40;2.40;;;15.70;96.30;;;;;;4994823;28;20831;-75
2022/08/30 06:39:58;;;;;;;5.70;2.53;;;15.80;96.30;;;;;;4994548;28;20411;-74
2022/08/30 06:42:29;;;;;;;4.97;3.47;;;15.70;96.30;;;;;;4994830;28;20451;-77
2022/08/30 06:44:54;;;;;;;5.27;4.10;;;15.60;96.30;;;;;;4995005;28;20428;-74
2022/08/30 06:47:20;;;;;;;6.03;4.27;;;15.60;96.30;;;;;;4994654;28;20416;-74
2022/08/30 06:49:45;;;;;;;3.97;3.57;;;15.40;96.30;;;;;;4994433;28;20638;-74
2022/08/30 06:52:11;;;;;;;4.50;3.47;;;15.50;96.30;;;;;;4990759;28;20209;-74
2022/08/30 06:54:37;;;;;;;5.60;2.90;;;15.60;96.30;;;;;;4990750;28;20277;-74
2022/08/30 06:57:03;;;;;;;5.93;2.87;;;15.70;96.30;;;;;;4996248;28;20205;-75
2022/08/30 06:59:28;;;;;;;6.17;3.53;;;16.10;96.30;;;;;;5011814;28;20985;-76
2022/08/30 07:01:54;;;;;;;3.80;2.40;;;17.60;96.30;;;;;;4994269;28;20194;-74
2022/08/30 07:04:20;;;;;;;4.83;2.60;;;18.90;96.30;;;;;;4994563;28;20271;-75
2022/08/30 07:06:45;;;;;;;3.37;2.53;;;20.20;96.30;;;;;;4994302;28;20866;-75
2022/08/30 07:09:11;;;;;;;4.93;2.77;;;20.90;96.30;;;;;;4993923;28;20178;-75
2022/08/30 07:11:37;;;;;;;6.47;2.77;;;21.80;96.30;;;;;;4994133;28;20220;-75
2022/08/30 07:14:04;;;;;;;8.20;2.40;;;21.90;96.30;;;;;;4994183;28;20256;-75
2022/08/30 07:16:29;;;;;;;6.40;2.17;;;21.30;96.30;;;;;;4994107;28;20416;-76
2022/08/30 07:18:57;;;;;;;7.03;2.60;;;21.50;96.30;;;;;;4993930;28;20461;-74
2022/08/30 07:21:28;;;;;;;3.13;2.70;;;21.70;96.30;;;;;;4976055;28;20288;-75
2022/08/30 07:23:56;;;;;;;4.20;2.80;;;22.60;96.30;;;;;;4993640;28;20409;-75
2022/08/30 07:26:35;;;;;;;2.57;2.30;;;23.20;96.30;;;;;;4993833;28;20456;-75
2022/08/30 07:29:02;;;;;;;5.97;2.67;;;24.40;96.30;;;;;;4993681;28;20408;-75
2022/08/30 07:31:28;;;;;;;2.90;2.40;;;25.10;93.90;;;;;;4993689;28;20525;-78
2022/08/30 07:33:53;;;;;;;5.13;2.60;;;25.10;94.70;;;;;;4992773;28;20423;-78
2022/08/30 07:36:20;;;;;;;3.53;2.70;;;25.50;92.50;;;;;;4993102;28;20421;-75
2022/08/30 07:38:47;;;;;;;4.03;2.60;;;25.10;94.70;;;;;;4993592;28;20236;-75
2022/08/30 07:41:22;;;;;;;3.73;2.67;;;25.90;92.40;;;;;;4990487;28;20516;-75
2022/08/30 07:43:48;;;;;;;7.80;3.20;;;25.80;92.10;;;;;;4993600;28;20404;-75
2022/08/30 07:46:13;;;;;;;3.40;2.63;;;26.60;92.70;;;;;;4993843;28;20409;-75
2022/08/30 07:48:39;;;;;;;4.10;3.30;;;26.90;89.40;;;;;;4993228;28;20177;-75
2022/08/30 07:51:12;;;;;;;6.83;3.50;;;25.70;91.40;;;;;;4993627;28;20220;-77
2022/08/30 07:53:38;;;;;;;6.23;4.00;;;25.20;94.70;;;;;;4993474;28;20521;-75
2022/08/30 07:56:03;;;;;;;13.17;2.77;;;25.70;92.90;;;;;;4993396;28;20420;-75
2022/08/30 07:58:29;;;;;;;3.67;3.10;;;26.80;89.60;;;;;;4993114;28;20204;-75
2022/08/30 08:00:58;;;;;;;3.63;2.87;;;25.50;93.10;;;;;;4993293;28;20189;-78
2022/08/30 08:03:25;;;;;;;7.47;3.10;;;25.90;93.90;;;;;;4993147;28;20660;-75
2022/08/30 08:05:51;;;;;;;5.30;2.90;;;26.60;90.40;;;;;;4975801;28;20468;-75
2022/08/30 08:08:18;;;;;;;2.53;2.30;;;26.60;90.80;;;;;;4992995;28;20455;-75
2022/08/30 08:10:43;;;;;;;4.70;2.17;;;26.40;88.30;;;;;;4992817;28;20439;-75
2022/08/30 08:13:09;;;;;;;5.43;2.60;;;25.80;88.90;;;;;;4991776;28;20431;-78
2022/08/30 08:15:34;;;;;;;2.23;2.00;;;25.90;89.70;;;;;;4993029;28;20181;-75
2022/08/30 08:18:00;;;;;;;3.43;2.20;;;25.60;89.90;;;;;;4992689;28;20688;-74
2022/08/30 08:20:26;;;;;;;3.70;2.60;;;26.60;85.90;;;;;;4992944;28;20171;-75
2022/08/30 08:22:52;;;;;;;3.07;2.13;;;26.10;89.10;;;;;;4993151;28;20180;-75
2022/08/30 08:25:18;;;;;;;2.60;2.40;;;26.90;89.00;;;;;;4992967;28;20416;-76
2022/08/30 08:27:49;;;;;;;3.40;2.40;;;26.50;87.70;;;;;;4992940;28;20428;-75
2022/08/30 08:30:16;;;;;;;2.67;2.10;;;26.70;87.70;;;;;;4992768;28;20408;-76
2022/08/30 08:32:42;;;;;;;4.20;2.30;;;27.20;86.80;;;;;;4992636;28;20419;-76
2022/08/30 08:35:10;;;;;;;3.90;2.03;;;27.90;84.00;;;;;;4992826;28;20927;-78
2022/08/30 08:37:35;;;;;;;2.73;2.40;;;27.20;86.00;;;;;;4992667;28;20235;-75
2022/08/30 08:40:01;;;;;;;6.67;2.40;;;27.70;84.00;;;;;;4991496;28;20412;-75
2022/08/30 08:42:47;;;;;;;2.37;1.90;;;28.10;82.10;;;;;;4956062;28;20209;-75
2022/08/30 08:45:18;;;;;;;3.43;2.07;;;28.30;84.00;;;;;;4973525;28;20209;-75
2022/08/30 08:47:53;;;;;;;2.00;1.80;;;26.70;84.50;;;;;;4973413;28;20417;-75
2022/08/30 08:50:20;;;;;;;3.63;1.70;;;27.10;85.40;;;;;;4973212;28;20420;-75
2022/08/30 08:56:00;;;;;;;6.23;1.93;;;27.60;82.30;;;;;;4972661;28;20468;-75
2022/08/30 08:58:28;;;;;;;1.40;1.17;;;28.00;82.80;;;;;;4972947;28;20975;-75
2022/08/30 09:00:56;;;;;;;1.63;1.30;;;27.10;80.10;;;;;;4955899;28;20445;-77
2022/08/30 09:03:25;;;;;;;1.57;1.43;;;26.30;83.70;;;;;;4973281;28;20471;-77
2022/08/30 09:05:52;;;;;;;2.07;1.27;;;25.60;85.40;;;;;;4973119;28;20893;-77
2022/08/30 09:08:19;;;;;;;2.80;1.60;;;25.70;86.80;;;;;;4972921;28;20413;-77
2022/08/30 09:11:00;;;;;;;1.50;1.40;;;26.60;83.70;;;;;;4972966;28;20800;-77
2022/08/30 09:13:25;;;;;;;1.40;1.20;;;26.80;84.40;;;;;;4992483;28;20471;-77
2022/08/30 09:15:53;;;;;;;1.90;1.47;;;26.50;82.70;;;;;;4975074;28;20820;-77
2022/08/30 09:18:18;;;;;;;1.40;1.27;;;25.70;84.70;;;;;;4991905;28;20248;-77
2022/08/30 09:20:48;;;;;;;2.73;1.70;;;25.60;84.20;;;;;;4992246;28;20428;-77
2022/08/30 09:23:26;;;;;;;2.37;1.60;;;25.20;83.10;;;;;;4992430;28;20166;-77
2022/08/30 09:25:57;;;;;;;1.47;1.30;;;24.50;83.20;;;;;;4974767;28;20412;-77
2022/08/30 09:28:32;;;;;;;3.40;1.60;;;24.00;83.60;;;;;;4992092;28;20431;-77
2022/08/30 09:30:57;;;;;;;2.20;1.63;;;24.20;86.40;;;;;;4992259;28;20523;-77
2022/08/30 09:33:23;;;;;;;2.80;1.70;;;24.70;83.60;;;;;;4974930;28;20859;-77
2022/08/30 09:35:53;;;;;;;2.07;1.70;;;25.30;82.60;;;;;;4988281;28;20189;-77
2022/08/30 09:38:31;;;;;;;2.17;1.70;;;25.50;82.20;;;;;;4955379;28;20696;-77
2022/08/30 09:41:01;;;;;;;2.20;2.00;;;25.80;82.70;;;;;;4986091;28;20447;-77
2022/08/30 09:43:31;;;;;;;2.70;2.30;;;25.60;84.40;;;;;;4972780;28;20420;-76
2022/08/30 09:45:59;;;;;;;4.67;1.90;;;26.00;83.00;;;;;;4962249;28;20427;-77
2022/08/30 09:48:39;;;;;;;3.40;1.60;;;26.20;80.10;;;;;;4991886;28;20452;-77
2022/08/30 09:51:10;;;;;;;2.17;1.87;;;26.90;84.10;;;;;;4974716;28;20964;-77
2022/08/30 09:53:51;;;;;;;6.10;1.87;;;27.60;79.20;;;;;;4992163;28;20415;-77
2022/08/30 09:56:29;;;;;;;2.20;1.70;;;27.30;79.20;;;;;;4992064;28;20499;-77
2022/08/30 09:59:19;;;;;;;4.50;1.93;;;26.70;78.20;;;;;;4994735;28;20471;-77
2022/08/30 10:02:10;;;;;;;5.10;1.80;;;27.00;78.00;;;;;;4995795;28;20440;-77
2022/08/30 10:04:42;;;;;;;1.97;1.70;;;25.70;79.90;;;;;;4987289;28;20832;-77
2022/08/30 10:07:17;;;;;;;2.30;2.10;;;25.10;80.70;;;;;;4978028;28;20870;-77
2022/08/30 10:10:00;;;;;;;3.67;1.70;;;24.80;83.30;;;;;;4992346;28;20444;-77
2022/08/30 10:12:50;;;;;;;3.33;1.80;;;24.70;82.70;;;;;;4995469;28;20436;-77
2022/08/30 10:15:31;;;;;;;2.53;1.70;;;25.30;82.00;;;;;;4995534;28;20412;-77
2022/08/30 10:18:19;;;;;;;4.57;1.90;;;25.10;83.10;;;;;;4995031;28;20459;-77
2022/08/30 10:21:04;;;;;;;2.10;1.83;;;24.50;84.80;;;;;;4977903;28;20432;-77
2022/08/30 10:23:47;;;;;;;3.33;2.53;;;24.60;86.10;;;;;;4995248;28;20417;-77
2022/08/30 10:26:29;;;;;;;2.00;1.80;;;24.80;88.30;;;;;;4995174;28;20531;-77
2022/08/30 10:29:01;;;;;;;3.00;2.03;;;25.30;88.80;;;;;;4994480;28;20416;-75
2022/08/30 10:31:50;;;;;;;2.10;1.90;;;25.70;84.10;;;;;;4994949;28;20436;-75
2022/08/30 10:34:31;;;;;;;3.77;1.97;;;25.50;82.20;;;;;;4995209;28;20416;-75
2022/08/30 10:37:13;;;;;;;2.53;2.10;;;26.00;83.30;;;;;;4995111;28;20499;-75
2022/08/30 10:39:52;;;;;;;1.97;1.77;;;25.50;84.90;;;;;;4994362;28;20413;-75
2022/08/30 10:42:32;;;;;;;3.00;1.73;;;25.70;82.40;;;;;;4994175;28;20919;-75
2022/08/30 10:45:10;;;;;;;3.20;2.20;;;25.70;83.30;;;;;;4995053;28;20408;-75
2022/08/30 10:47:48;;;;;;;3.07;2.30;;;25.60;84.40;;;;;;4994936;28;20423;-75
2022/08/30 10:50:39;;;;;;;7.00;1.90;;;25.40;82.30;;;;;;4994600;28;20436;-75
2022/08/30 10:53:17;;;;;;;3.87;2.07;;;25.60;86.60;;;;;;4994459;28;20417;-75
2022/08/30 10:55:50;;;;;;;4.27;2.10;;;25.90;85.10;;;;;;4994739;28;20404;-75
2022/08/30 10:58:17;;;;;;;3.70;2.00;;;24.90;84.40;;;;;;4994429;28;20562;-76
2022/08/30 11:01:10;;;;;;;2.40;2.00;;;25.60;85.70;;;;;;4994688;28;20428;-75
2022/08/30 11:04:13;;;;;;;4.57;1.90;;;25.30;85.30;;;;;;4995003;28;20840;-75
2022/08/30 11:06:44;;;;;;;2.87;1.90;;;24.90;84.60;;;;;;4994545;28;20758;-75
2022/08/30 11:09:42;;;;;;;5.63;2.00;;;25.30;85.00;;;;;;4990140;28;20468;-76
2022/08/30 11:12:29;;;;;;;1.93;1.50;;;24.70;84.60;;;;;;4974966;28;20926;-75
2022/08/30 11:14:55;;;;;;;2.80;2.50;;;24.40;84.90;;;;;;4994359;28;20404;-75
2022/08/30 11:17:31;;;;;;;3.30;2.00;;;23.90;88.40;;;;;;4994012;28;20488;-75
2022/08/30 11:20:00;;;;;;;2.80;1.80;;;23.80;88.70;;;;;;4990973;28;20397;-75
2022/08/30 11:22:28;;;;;;;4.07;3.70;;;23.70;87.80;;;;;;4994040;28;20433;-75
2022/08/30 11:24:59;;;;;;;4.13;2.10;;;24.40;88.50;;;;;;4994023;28;20409;-75
2022/08/30 11:27:42;;;;;;;4.03;1.73;;;24.70;86.80;;;;;;4994109;28;20575;-75
2022/08/30 11:30:23;;;;;;;4.27;2.23;;;25.00;85.30;;;;;;4993918;28;20419;-75
2022/08/30 11:33:02;;;;;;;3.20;2.07;;;25.80;85.30;;;;;;4976739;28;20428;-75
2022/08/30 11:35:44;;;;;;;10.33;2.47;;;25.40;85.70;;;;;;4993974;28;20522;-75
2022/08/30 11:38:38;;;;;;;3.20;1.90;;;25.20;85.30;;;;;;4993606;28;20464;-75
2022/08/30 11:41:12;;;;;;;1.80;1.60;;;24.80;86.10;;;;;;4993768;28;20531;-75
2022/08/30 11:43:38;;;;;;;4.03;2.13;;;25.00;86.90;;;;;;4976502;28;20451;-75
2022/08/30 11:46:25;;;;;;;4.20;1.80;;;25.00;85.30;;;;;;4993881;28;20409;-74
2022/08/30 11:49:00;;;;;;;3.00;1.90;;;25.20;86.80;;;;;;4976853;28;20412;-78
2022/08/30 11:51:35;;;;;;;3.00;1.83;;;25.30;85.20;;;;;;5406041;23;20471;-77
2022/08/30 11:54:19;;;;;;;3.20;1.70;;;25.20;85.60;;;;;;5008691;28;20422;-77
2022/08/30 11:56:56;;;;;;;2.73;2.20;;;24.50;85.40;;;;;;5013558;28;20466;-78
2022/08/30 11:59:21;;;;;;;2.80;2.00;;;23.80;87.20;;;;;;5004859;28;20491;-78
2022/08/30 12:01:47;;;;;;;3.50;2.00;;;23.40;87.60;;;;;;5004814;28;20437;-78
2022/08/30 12:04:16;;;;;;;11.27;1.67;;;23.10;89.70;;;;;;4995229;28;20225;-78
2022/08/30 12:06:46;;;;;;;2.83;1.80;;;23.90;91.00;;;;;;5007470;28;20907;-78
2022/08/30 12:09:24;;;;;;;13.93;1.93;;;24.20;88.70;;;;;;5002112;28;20424;-78
2022/08/30 12:11:58;;;;;;;2.50;1.90;;;24.80;87.30;;;;;;4998000;28;20468;-78
2022/08/30 12:14:39;;;;;;;2.47;2.00;;;25.20;85.40;;;;;;5009266;28;20409;-78
2022/08/30 12:20:22;;;;;;;4.60;2.30;;;25.50;86.80;;;;;;5012011;28;20439;-76
2022/08/30 12:22:48;;;;;;;2.37;2.00;;;25.50;84.80;;;;;;4999138;28;20458;-76
2022/08/30 12:25:27;;;;;;;3.73;2.13;;;25.50;85.20;;;;;;5002695;28;20472;-77
2022/08/30 12:28:30;;;;;;;4.80;2.30;;;25.20;87.20;;;;;;5007588;28;20426;-76
2022/08/30 12:31:10;;;;;;;3.23;1.73;;;24.40;86.90;;;;;;4999639;28;20443;-76
2022/08/30 12:33:45;;;;;;;4.63;2.10;;;23.50;89.40;;;;;;5012294;28;20424;-77
2022/08/30 12:36:13;;;;;;;4.83;2.30;;;23.20;90.70;;;;;;5010879;28;20509;-77
2022/08/30 12:38:39;;;;;;;3.53;1.53;;;23.20;89.80;;;;;;4997501;28;20452;-76
2022/08/30 12:41:05;;;;;;;3.07;1.80;;;22.90;90.60;;;;;;5009968;28;20481;-76
2022/08/30 12:43:34;;;;;;;3.90;2.10;;;22.70;91.20;;;;;;4999040;28;21006;-78
2022/08/30 12:46:04;;;;;;;3.33;2.23;;;22.50;91.50;;;;;;5009785;28;20173;-78
2022/08/30 12:48:34;;;;;;;4.03;2.13;;;23.20;90.20;;;;;;5004335;28;20416;-76
2022/08/30 12:51:00;;;;;;;3.20;2.00;;;23.70;88.80;;;;;;5005068;28;20447;-76
2022/08/30 12:53:27;;;;;;;2.50;1.93;;;24.10;87.90;;;;;;5004863;28;20795;-76
2022/08/30 12:56:06;;;;;;;1.77;1.67;;;24.90;91.90;;;;;;5008168;28;20415;-78
2022/08/30 12:58:49;;;;;;;7.90;2.50;;;25.80;82.90;;;;;;5002659;28;20459;-76
2022/08/30 13:01:29;;;;;;;7.60;2.77;;;26.10;83.10;;;;;;5002220;28;20507;-76
2022/08/30 13:04:12;;;;;;;2.40;1.90;;;26.20;81.90;;;;;;5011874;28;20403;-74
2022/08/30 13:06:48;;;;;;;1.73;1.50;;;25.40;83.40;;;;;;5003955;28;20420;-77
2022/08/30 13:09:28;;;;;;;3.23;2.03;;;25.40;84.50;;;;;;5001380;28;20408;-75
2022/08/30 13:11:54;;;;;;;2.80;1.83;;;24.90;83.70;;;;;;5012026;28;20537;-74
2022/08/30 13:14:31;;;;;;;2.20;2.00;;;24.00;85.20;;;;;;5012067;28;20446;-75
2022/08/30 13:17:11;;;;;;;2.40;2.10;;;23.70;85.40;;;;;;5011998;28;20423;-75
2022/08/30 13:19:40;;;;;;;3.30;1.97;;;22.90;87.60;;;;;;5011840;28;20443;-76
2022/08/30 13:22:22;;;;;;;6.20;2.17;;;22.80;89.00;;;;;;4995476;28;20920;-77
2022/08/30 13:24:50;;;;;;;4.20;2.10;;;22.80;89.10;;;;;;5011161;28;20423;-77
2022/08/30 13:27:15;;;;;;;2.60;2.23;;;22.70;90.70;;;;;;5011711;28;20410;-76
2022/08/30 13:29:40;;;;;;;4.77;2.30;;;22.70;92.30;;;;;;4998140;28;20416;-75
2022/08/30 13:32:06;;;;;;;5.77;2.90;;;22.40;92.60;;;;;;5009796;28;20205;-77
2022/08/30 13:34:34;;;;;;;4.70;2.73;;;22.30;93.70;;;;;;5011621;28;20178;-77
2022/08/30 13:37:00;;;;;;;8.43;3.97;;;22.10;93.50;;;;;;5002253;28;20177;-78
2022/08/30 13:39:26;;;;;;;3.60;2.70;;;22.00;94.40;;;;;;4997639;28;20472;-76
2022/08/30 13:41:52;;;;;;;7.50;2.37;;;22.10;93.10;;;;;;5009040;28;20498;-77
2022/08/30 13:44:18;;;;;;;5.40;2.57;;;22.20;93.90;;;;;;5008307;28;20455;-76
2022/08/30 13:46:47;;;;;;;6.00;2.53;;;22.20;93.30;;;;;;5011056;28;20791;-76
2022/08/30 13:49:18;;;;;;;4.07;2.50;;;22.30;92.80;;;;;;5006126;28;20161;-76
2022/08/30 13:51:44;;;;;;;2.97;2.20;;;22.40;92.60;;;;;;5003942;28;20942;-75
2022/08/30 13:54:10;;;;;;;6.13;3.23;;;22.50;93.40;;;;;;5003828;28;20987;-75
2022/08/30 13:56:35;;;;;;;5.40;2.60;;;22.90;90.50;;;;;;5001041;28;20420;-77
2022/08/30 13:59:01;;;;;;;3.70;2.00;;;23.20;90.70;;;;;;5005864;28;20335;-75
2022/08/30 14:01:27;;;;;;;2.80;2.50;;;23.50;92.30;;;;;;5002056;28;20205;-74
2022/08/30 14:03:53;;;;;;;3.53;2.93;;;23.30;90.10;;;;;;5009445;28;20184;-74
2022/08/30 14:06:19;;;;;;;4.50;2.33;;;23.00;90.30;;;;;;5015314;28;20909;-74
2022/08/30 14:08:45;;;;;;;7.40;2.80;;;23.00;92.50;;;;;;5009150;28;20435;-74
2022/08/30 14:11:12;;;;;;;5.90;2.60;;;23.00;92.90;;;;;;5019787;28;20209;-77
2022/08/30 14:13:38;;;;;;;3.30;2.67;;;23.20;91.60;;;;;;5016349;28;20240;-74
2022/08/30 14:16:06;;;;;;;12.73;3.70;;;23.30;90.50;;;;;;5012164;28;20444;-79
2022/08/30 14:18:32;;;;;;;2.77;2.50;;;23.40;91.30;;;;;;5007014;28;20527;-74
2022/08/30 14:20:58;;;;;;;119.10;39.80;;;23.50;90.20;;;;;;5008835;28;20471;-75
2022/08/30 14:23:24;;;;;;;3.50;2.90;;;23.20;91.90;;;;;;5014638;28;20157;-74
2022/08/30 14:25:52;;;;;;;3.93;2.63;;;23.00;90.40;;;;;;5014479;28;20779;-74
2022/08/30 14:28:17;;;;;;;3.90;2.43;;;23.20;89.30;;;;;;5009118;28;20588;-74
2022/08/30 14:30:43;;;;;;;3.20;2.20;;;23.40;91.70;;;;;;5002265;28;20472;-75
2022/08/30 14:33:08;;;;;;;4.00;2.43;;;23.70;91.50;;;;;;5014379;28;20200;-74
2022/08/30 14:35:34;;;;;;;2.90;2.10;;;24.00;88.30;;;;;;5004671;28;20645;-74
2022/08/30 14:38:00;;;;;;;5.50;2.50;;;24.00;89.70;;;;;;5015479;28;20553;-74
2022/08/30 14:40:25;;;;;;;6.53;2.83;;;23.70;89.70;;;;;;5019908;28;20425;-74
2022/08/30 14:42:51;;;;;;;6.27;2.40;;;23.50;88.60;;;;;;4994811;28;20189;-74
2022/08/30 14:45:17;;;;;;;5.87;2.30;;;23.20;88.40;;;;;;4994811;28;20176;-74
2022/08/30 14:47:42;;;;;;;4.30;2.40;;;22.90;91.40;;;;;;5008836;28;20185;-74
2022/08/30 14:50:08;;;;;;;2.63;2.33;;;22.70;92.30;;;;;;5001685;28;20207;-76
2022/08/30 14:52:33;;;;;;;6.03;2.10;;;22.40;93.00;;;;;;5014052;28;20227;-74
2022/08/30 14:55:00;;;;;;;5.43;2.50;;;21.90;96.30;;;;;;5014055;28;20829;-73
2022/08/30 14:57:26;;;;;;;5.47;2.60;;;21.80;96.00;;;;;;5014267;28;20580;-76
2022/08/30 14:59:51;;;;;;;5.13;2.60;;;21.50;96.30;;;;;;5014125;28;20450;-73
2022/08/30 15:02:17;;;;;;;6.17;2.73;;;21.40;96.30;;;;;;5001274;28;20213;-74
2022/08/30 15:04:43;;;;;;;4.37;3.00;;;21.40;96.30;;;;;;5019176;28;20172;-73
2022/08/30 15:07:09;;;;;;;3.43;2.93;;;21.30;96.30;;;;;;5014099;28;20420;-74
2022/08/30 15:09:35;;;;;;;4.80;3.10;;;21.40;96.30;;;;;;5013985;28;20211;-77
2022/08/30 15:12:02;;;;;;;5.83;3.00;;;21.30;96.30;;;;;;5014015;28;20240;-74
2022/08/30 15:14:30;;;;;;;3.17;2.87;;;21.30;96.30;;;;;;5012794;28;20423;-75
2022/08/30 15:16:57;;;;;;;5.60;2.50;;;21.20;96.30;;;;;;5018204;28;20498;-76
2022/08/30 15:19:23;;;;;;;11.03;2.80;;;21.10;96.30;;;;;;5019508;28;20458;-75
2022/08/30 15:21:49;;;;;;;4.53;2.83;;;21.10;96.30;;;;;;5013875;28;20907;-75
2022/08/30 15:24:18;;;;;;;6.70;2.67;;;21.10;96.30;;;;;;5013770;28;21078;-74
2022/08/30 15:26:43;;;;;;;5.47;3.07;;;21.10;96.30;;;;;;5012893;28;20420;-75
2022/08/30 15:29:11;;;;;;;12.53;2.77;;;21.10;96.30;;;;;;5013160;28;20466;-78
2022/08/30 15:31:39;;;;;;;5.50;3.00;;;21.00;96.30;;;;;;4995978;28;20193;-75
2022/08/30 15:34:05;;;;;;;5.63;3.30;;;20.90;96.30;;;;;;5012880;28;20450;-78
2022/08/30 15:36:31;;;;;;;5.07;3.60;;;20.90;96.30;;;;;;5012275;28;20455;-75
2022/08/30 15:38:58;;;;;;;5.40;3.13;;;21.00;96.30;;;;;;5013291;28;20455;-75
2022/08/30 15:41:23;;;;;;;5.00;3.23;;;20.80;96.30;;;;;;5009030;28;20287;-75
2022/08/30 15:43:49;;;;;;;4.93;3.40;;;20.70;96.30;;;;;;5014607;28;20419;-75
2022/08/30 15:46:17;;;;;;;11.17;3.60;;;20.60;96.30;;;;;;5018459;28;20184;-73
2022/08/30 15:48:44;;;;;;;2.97;2.77;;;20.50;96.30;;;;;;5013073;28;20177;-75
2022/08/30 15:51:09;;;;;;;4.73;2.97;;;20.50;96.30;;;;;;5013292;28;20515;-76
2022/08/30 15:53:35;;;;;;;8.63;3.77;;;20.70;96.30;;;;;;5013036;28;20590;-74
2022/08/30 15:56:01;;;;;;;5.30;3.80;;;20.60;96.30;;;;;;5012730;28;20179;-74
2022/08/30 15:58:26;;;;;;;4.83;3.20;;;20.70;96.30;;;;;;5005907;28;20221;-77
2022/08/30 16:00:52;;;;;;;5.13;3.23;;;20.70;96.30;;;;;;4993569;28;20228;-74
2022/08/30 16:03:17;;;;;;;13.83;3.20;;;20.70;96.30;;;;;;4993836;28;20265;-74
2022/08/30 16:05:43;;;;;;;4.70;3.20;;;20.70;96.30;;;;;;4993433;28;20189;-75
2022/08/30 16:08:10;;;;;;;9.40;2.60;;;20.80;96.30;;;;;;5009571;28;20195;-76
2022/08/30 16:10:37;;;;;;;3.23;2.77;;;20.90;96.30;;;;;;5012622;28;20587;-76
2022/08/30 16:13:03;;;;;;;6.63;2.73;;;20.80;96.30;;;;;;5012246;28;20430;-77
2022/08/30 16:15:28;;;;;;;6.10;3.20;;;20.70;96.30;;;;;;5012399;28;20420;-77
2022/08/30 16:17:54;;;;;;;5.30;2.90;;;20.60;96.30;;;;;;5012171;28;20197;-77
2022/08/30 16:20:19;;;;;;;3.67;2.90;;;20.50;96.30;;;;;;5012857;28;20668;-77
2022/08/30 16:22:45;;;;;;;7.57;3.20;;;20.40;96.30;;;;;;5012919;28;20231;-77
2022/08/30 16:25:10;;;;;;;4.20;2.90;;;20.40;96.30;;;;;;5012668;28;20185;-78
2022/08/30 16:27:41;;;;;;;4.73;3.10;;;20.20;96.30;;;;;;5012916;28;20188;-77
2022/08/30 16:30:10;;;;;;;6.00;3.40;;;20.20;96.30;;;;;;5008291;28;20316;-79
2022/08/30 16:32:36;;;;;;;4.50;2.80;;;20.10;96.30;;;;;;5001362;28;20539;-78
2022/08/30 16:35:03;;;;;;;8.50;3.17;;;20.10;96.30;;;;;;4995372;28;20508;-78
2022/08/30 16:37:28;;;;;;;11.63;3.77;;;19.90;96.30;;;;;;5012720;28;20344;-79
2022/08/30 16:39:54;;;;;;;4.20;3.17;;;19.80;96.30;;;;;;5015661;28;20574;-78
2022/08/30 16:42:19;;;;;;;3.60;2.90;;;19.70;96.30;;;;;;5019225;28;20300;-79
2022/08/30 16:44:45;;;;;;;4.80;3.40;;;19.60;96.30;;;;;;5003614;28;20182;-78
2022/08/30 16:47:10;;;;;;;4.60;3.10;;;19.70;96.30;;;;;;5024066;28;20216;-78
2022/08/30 16:49:36;;;;;;;5.60;3.57;;;19.60;96.30;;;;;;5021357;28;20177;-78
2022/08/30 16:52:02;;;;;;;5.20;3.30;;;19.60;96.30;;;;;;5020763;28;20231;-78
2022/08/30 16:54:29;;;;;;;3.67;2.90;;;19.60;96.30;;;;;;5012800;28;20696;-79
2022/08/30 16:56:54;;;;;;;5.10;3.00;;;19.60;96.30;;;;;;5012068;28;20419;-77
2022/08/30 16:59:20;;;;;;;3.90;3.13;;;19.50;96.30;;;;;;5010681;28;20463;-77
2022/08/30 17:01:46;;;;;;;4.73;2.97;;;19.40;96.30;;;;;;5011769;28;20204;-77
2022/08/30 17:04:12;;;;;;;3.80;2.77;;;19.40;96.30;;;;;;5010780;28;20400;-77
2022/08/30 17:06:38;;;;;;;7.03;3.00;;;19.40;96.30;;;;;;5010942;28;20180;-78
2022/08/30 17:09:05;;;;;;;5.33;3.80;;;19.40;96.30;;;;;;5006995;28;20260;-78
2022/08/30 17:11:31;;;;;;;9.10;4.53;;;19.30;96.30;;;;;;4992243;28;20201;-78
2022/08/30 17:13:57;;;;;;;4.07;3.40;;;19.20;96.30;;;;;;4997521;28;20442;-78
2022/08/30 17:16:23;;;;;;;12.60;3.83;;;19.20;96.30;;;;;;5000817;28;20447;-78
2022/08/30 17:18:49;;;;;;;3.20;2.83;;;19.20;96.30;;;;;;5008382;28;20200;-77
2022/08/30 17:21:14;;;;;;;4.63;3.30;;;19.20;96.30;;;;;;5011348;28;20556;-75
2022/08/30 17:23:39;;;;;;;3.80;3.40;;;19.10;96.30;;;;;;4994842;28;20495;-76
2022/08/30 17:26:05;;;;;;;7.80;3.40;;;19.10;96.30;;;;;;5011565;28;20172;-75
2022/08/30 17:28:30;;;;;;;4.33;3.10;;;19.00;96.30;;;;;;5011594;28;20192;-75
2022/08/30 17:30:56;;;;;;;4.60;3.37;;;19.00;96.30;;;;;;5012374;28;20200;-74
2022/08/30 17:33:22;;;;;;;5.67;2.93;;;18.90;96.30;;;;;;5011580;28;20185;-76
2022/08/30 17:35:48;;;;;;;2.90;2.70;;;18.80;96.30;;;;;;5012132;28;20263;-75
2022/08/30 17:38:13;;;;;;;3.43;3.13;;;18.70;96.30;;;;;;5011504;28;20201;-75
2022/08/30 17:40:39;;;;;;;3.87;3.50;;;18.70;96.30;;;;;;4993717;28;20204;-75